Time;durP1;ratioP1;P1;durP2;ratioP2;P2;SDS_P1;SDS_P2;PMS_P1;PMS_P2;Temp;Humidity;BMP_temperature;BMP_pressure;BME280_temperature;BME280_humidity;BME280_pressure;Samples;Min_cycle;Max_cycle;Signal;HPM_P1;HPM_P2
2023/10/15 00:01:53;;;;;;;3.95;1.33;;;8.30;99.90;;;;;;4839652;29;20621;-89
2023/10/15 00:04:19;;;;;;;7.63;1.52;;;9.00;99.90;;;;;;4826732;29;20123;-89
2023/10/15 00:06:44;;;;;;;3.60;1.30;;;8.20;99.90;;;;;;4839511;29;20586;-90
2023/10/15 00:09:10;;;;;;;2.90;1.15;;;9.30;99.90;;;;;;4838560;29;20063;-91
2023/10/15 00:11:36;;;;;;;5.75;1.58;;;8.10;99.90;;;;;;4827860;29;20112;-89
2023/10/15 00:14:05;;;;;;;5.68;1.30;;;8.10;99.90;;;;;;4841214;29;20045;-89
2023/10/15 00:16:32;;;;;;;3.40;1.40;;;8.10;99.90;;;;;;4825628;29;20129;-89
2023/10/15 00:19:04;;;;;;;3.83;1.40;;;8.10;99.90;;;;;;4853959;29;20104;-88
2023/10/15 00:21:30;;;;;;;5.43;1.40;;;9.30;99.90;;;;;;4842151;29;20117;-89
2023/10/15 00:23:56;;;;;;;6.03;1.58;;;8.10;99.90;;;;;;4823653;29;20496;-90
2023/10/15 00:26:21;;;;;;;5.07;1.70;;;8.60;99.90;;;;;;4842560;29;20041;-89
2023/10/15 00:28:48;;;;;;;5.32;1.42;;;;;;;;;;4825620;29;20334;-89
2023/10/15 00:31:13;;;;;;;6.38;1.75;;;8.00;99.90;;;;;;4823373;29;20072;-90
2023/10/15 00:33:46;;;;;;;4.15;1.42;;;8.00;99.90;;;;;;4837972;29;20510;-92
2023/10/15 00:36:15;;;;;;;4.57;1.35;;;9.00;99.90;;;;;;4838918;29;20037;-91
2023/10/15 00:38:45;;;;;;;4.75;1.55;;;8.00;99.90;;;;;;4866093;29;20048;-89
2023/10/15 00:41:14;;;;;;;8.52;1.88;;;8.60;99.90;;;;;;4826778;29;20101;-91
2023/10/15 00:43:57;;;;;;;3.67;1.40;;;8.70;99.90;;;;;;4839366;29;20045;-90
2023/10/15 00:46:27;;;;;;;3.65;1.35;;;7.90;99.90;;;;;;4860230;29;20047;-90
2023/10/15 00:48:57;;;;;;;6.38;1.60;;;8.40;99.90;;;;;;4842238;29;20363;-90
2023/10/15 00:51:23;;;;;;;5.85;1.40;;;7.90;99.90;;;;;;4842848;29;20041;-90
2023/10/15 00:53:58;;;;;;;5.93;1.60;;;7.90;99.90;;;;;;4826854;29;20051;-90
2023/10/15 00:56:38;;;;;;;5.93;1.52;;;7.90;99.90;;;;;;4859059;29;20049;-91
2023/10/15 01:01:34;;;;;;;6.30;1.80;;;7.90;99.90;;;;;;4840353;29;20052;-90
2023/10/15 01:04:02;;;;;;;5.88;2.08;;;8.40;99.90;;;;;;4843608;29;20152;-91
2023/10/15 01:06:30;;;;;;;4.18;1.60;;;8.00;99.90;;;;;;4845137;29;20049;-89
2023/10/15 01:09:10;;;;;;;3.75;1.48;;;7.90;99.90;;;;;;4855930;29;20033;-89
2023/10/15 01:11:51;;;;;;;3.92;1.35;;;8.10;99.90;;;;;;4856420;29;20068;-88
2023/10/15 01:14:26;;;;;;;5.07;1.48;;;8.00;99.90;;;;;;4858423;29;20104;-89
2023/10/15 01:16:53;;;;;;;4.97;1.40;;;8.10;99.90;;;;;;4844411;29;20388;-91
2023/10/15 01:19:20;;;;;;;5.18;1.60;;;8.80;99.90;;;;;;4859554;29;20041;-90
2023/10/15 01:21:53;;;;;;;4.88;1.33;;;8.80;99.90;;;;;;4854816;29;20101;-90
2023/10/15 01:24:20;;;;;;;4.00;1.35;;;9.70;99.90;;;;;;4847525;29;20106;-91
2023/10/15 01:29:34;;;;;;;5.75;1.70;;;9.00;99.90;;;;;;4861962;29;20116;-89
2023/10/15 01:32:14;;;;;;;6.55;1.80;;;8.20;99.90;;;;;;4859447;29;20039;-91
2023/10/15 01:34:44;;;;;;;5.57;1.50;;;;;;;;;;4864137;29;20080;-91
2023/10/15 01:37:15;;;;;;;5.65;1.58;;;8.10;99.90;;;;;;4875360;29;20057;-90
2023/10/15 01:39:47;;;;;;;5.10;1.48;;;8.20;99.90;;;;;;4863193;29;20121;-92
2023/10/15 01:42:34;;;;;;;5.28;1.63;;;8.10;99.90;;;;;;4880312;29;20494;-93
2023/10/15 01:48:13;;;;;;;4.95;1.40;;;8.20;99.90;;;;;;4876371;29;20044;-91
2023/10/15 01:50:49;;;;;;;4.53;1.67;;;;;;;;;;4861849;29;20045;-89
2023/10/15 01:53:16;;;;;;;8.20;2.35;;;8.20;99.90;;;;;;4863786;29;20379;-90
2023/10/15 01:55:53;;;;;;;5.05;1.30;;;8.20;99.90;;;;;;4860966;29;20041;-93
2023/10/15 01:58:32;;;;;;;6.45;1.85;;;8.80;99.90;;;;;;4858654;29;20425;-94
2023/10/15 02:01:16;;;;;;;7.57;2.03;;;8.00;99.90;;;;;;4863413;29;20529;-91
2023/10/15 02:03:45;;;;;;;8.55;1.60;;;8.00;99.90;;;;;;4858269;29;20100;-90
2023/10/15 02:06:11;;;;;;;7.43;1.77;;;7.90;99.90;;;;;;4860135;29;20068;-89
2023/10/15 02:08:39;;;;;;;8.95;1.70;;;8.00;99.90;;;;;;4876424;29;20037;-89
2023/10/15 02:11:11;;;;;;;6.05;1.60;;;8.20;99.90;;;;;;4861542;29;20123;-90
2023/10/15 02:13:40;;;;;;;4.70;1.53;;;9.10;99.90;;;;;;4844850;29;20032;-91
2023/10/15 02:16:08;;;;;;;6.45;1.63;;;7.80;99.90;;;;;;4831399;29;20048;-91
2023/10/15 02:18:35;;;;;;;3.92;1.40;;;9.00;99.90;;;;;;4857973;29;20048;-90
2023/10/15 02:21:01;;;;;;;6.80;2.13;;;7.80;99.90;;;;;;4846178;29;20053;-89
2023/10/15 02:23:28;;;;;;;4.60;1.67;;;;;;;;;;4840664;29;20056;-90
2023/10/15 02:25:58;;;;;;;5.72;1.58;;;7.70;99.90;;;;;;4852123;29;20121;-92
2023/10/15 02:28:31;;;;;;;5.20;1.70;;;8.70;99.90;;;;;;4844133;29;20506;-90
2023/10/15 02:33:33;;;;;;;5.75;1.42;;;7.60;99.90;;;;;;4873809;29;20040;-90
2023/10/15 02:35:59;;;;;;;3.95;1.50;;;9.10;99.90;;;;;;4858462;29;20446;-91
2023/10/15 02:38:37;;;;;;;5.18;1.42;;;7.50;99.90;;;;;;4843688;29;20128;-90
2023/10/15 02:41:04;;;;;;;4.18;1.40;;;7.60;99.90;;;;;;4875616;29;20041;-90
2023/10/15 02:43:31;;;;;;;6.47;1.67;;;9.20;99.90;;;;;;4877863;29;20040;-90
2023/10/15 02:46:00;;;;;;;5.15;1.42;;;7.90;99.90;;;;;;4873748;29;20055;-91
2023/10/15 02:48:32;;;;;;;4.07;1.40;;;7.60;99.90;;;;;;4857275;29;20529;-90
2023/10/15 02:51:02;;;;;;;4.50;1.60;;;7.60;99.90;;;;;;4860558;29;20607;-90
2023/10/15 02:53:39;;;;;;;3.83;1.30;;;7.60;99.90;;;;;;4858444;29;20127;-90
2023/10/15 02:56:11;;;;;;;5.70;1.77;;;7.60;99.90;;;;;;4859216;29;20240;-88
2023/10/15 02:58:38;;;;;;;6.97;1.85;;;7.70;99.90;;;;;;4861233;29;20401;-88
2023/10/15 03:01:13;;;;;;;4.95;1.55;;;7.60;99.90;;;;;;4862006;29;20048;-89
2023/10/15 03:03:48;;;;;;;5.00;1.50;;;7.50;99.90;;;;;;4876013;29;20037;-89
2023/10/15 03:06:18;;;;;;;3.50;1.33;;;7.60;99.90;;;;;;4869907;29;20044;-90
2023/10/15 03:08:46;;;;;;;4.40;1.40;;;7.90;99.90;;;;;;4890462;29;20051;-89
2023/10/15 03:11:12;;;;;;;5.75;1.70;;;;;;;;;;4859199;29;20040;-91
2023/10/15 03:13:52;;;;;;;4.30;1.38;;;7.60;99.90;;;;;;4843697;29;20079;-92
2023/10/15 03:16:19;;;;;;;4.03;1.27;;;7.60;99.90;;;;;;4857801;29;20508;-89
2023/10/15 03:18:49;;;;;;;5.90;1.70;;;7.60;99.90;;;;;;4861224;29;20510;-91
2023/10/15 03:21:25;;;;;;;5.32;1.65;;;7.60;99.90;;;;;;4856776;29;20155;-92
2023/10/15 03:24:04;;;;;;;4.90;1.60;;;7.50;99.90;;;;;;4858683;29;20533;-91
2023/10/15 03:26:33;;;;;;;4.60;1.25;;;7.60;99.90;;;;;;4855888;29;20835;-91
2023/10/15 03:29:13;;;;;;;4.07;1.40;;;7.50;99.90;;;;;;4837113;29;20053;-93
2023/10/15 03:31:48;;;;;;;4.63;1.20;;;7.40;99.90;;;;;;4854840;29;20045;-92
2023/10/15 03:34:17;;;;;;;4.68;1.25;;;7.50;99.90;;;;;;4840257;29;20112;-92
2023/10/15 03:36:50;;;;;;;3.15;1.08;;;7.40;99.90;;;;;;4867414;29;20048;-89
2023/10/15 03:42:08;;;;;;;3.50;1.30;;;8.80;99.90;;;;;;4870261;29;20044;-88
2023/10/15 03:44:38;;;;;;;2.50;1.10;;;7.50;99.90;;;;;;4842450;29;20583;-89
2023/10/15 03:47:06;;;;;;;2.70;1.10;;;7.80;99.90;;;;;;4851926;29;20862;-88
2023/10/15 03:49:32;;;;;;;3.15;1.35;;;7.70;99.90;;;;;;4808233;29;20049;-89
2023/10/15 03:51:58;;;;;;;4.85;1.20;;;7.50;99.90;;;;;;4841258;29;20452;-89
2023/10/15 03:54:25;;;;;;;3.53;1.20;;;;;;;;;;4855048;29;20037;-90
2023/10/15 03:56:52;;;;;;;2.78;1.00;;;7.50;99.90;;;;;;4825934;29;20128;-90
2023/10/15 03:59:19;;;;;;;2.92;1.02;;;7.50;99.90;;;;;;4856568;29;20089;-90
2023/10/15 04:01:50;;;;;;;2.22;1.00;;;8.90;99.90;;;;;;4843144;29;20045;-90
2023/10/15 04:04:17;;;;;;;3.20;1.20;;;8.90;99.90;;;;;;4841519;29;20144;-90
2023/10/15 04:06:54;;;;;;;3.45;1.20;;;7.50;99.90;;;;;;4838688;29;20094;-90
2023/10/15 04:09:23;;;;;;;2.70;0.90;;;7.50;99.90;;;;;;4836973;29;20448;-89
2023/10/15 04:11:50;;;;;;;4.32;1.20;;;7.50;99.90;;;;;;4839335;29;20090;-90
2023/10/15 04:14:32;;;;;;;3.60;1.30;;;7.50;99.90;;;;;;4856626;29;20047;-89
2023/10/15 04:16:58;;;;;;;3.25;1.38;;;7.50;99.90;;;;;;4840954;29;20041;-89
2023/10/15 04:19:31;;;;;;;2.38;1.20;;;7.50;99.90;;;;;;4848165;29;20051;-91
2023/10/15 04:22:00;;;;;;;2.78;1.08;;;7.50;99.90;;;;;;4841081;29;20483;-94
2023/10/15 04:24:41;;;;;;;2.65;1.10;;;7.50;99.90;;;;;;4847240;29;20060;-93
2023/10/15 04:27:14;;;;;;;2.83;1.15;;;7.40;99.90;;;;;;4852719;29;20085;-93
2023/10/15 04:29:47;;;;;;;2.88;1.20;;;;;;;;;;4863168;29;20056;-92
2023/10/15 04:32:17;;;;;;;4.03;1.20;;;7.50;99.90;;;;;;4878320;29;20040;-93
2023/10/15 04:34:44;;;;;;;2.50;1.10;;;7.50;99.90;;;;;;4844696;29;20120;-93
2023/10/15 04:37:16;;;;;;;4.95;1.60;;;;;;;;;;4862968;29;21211;-94
2023/10/15 04:39:52;;;;;;;5.18;1.60;;;7.40;99.90;;;;;;4877166;29;20049;-93
2023/10/15 04:42:29;;;;;;;2.72;1.27;;;7.40;99.90;;;;;;4862159;29;20044;-94
2023/10/15 04:44:56;;;;;;;1.48;1.10;;;7.30;99.90;;;;;;4863395;29;20044;-94
2023/10/15 04:47:28;;;;;;;3.20;1.20;;;7.40;99.90;;;;;;4856641;29;20060;-92
2023/10/15 04:49:57;;;;;;;3.08;1.17;;;7.30;99.90;;;;;;4861930;29;20094;-95
2023/10/15 04:52:27;;;;;;;3.78;1.10;;;8.40;99.90;;;;;;4843481;29;20037;-94
2023/10/15 04:54:55;;;;;;;1.95;0.90;;;7.30;99.90;;;;;;4845647;29;20053;-94
2023/10/15 04:57:23;;;;;;;2.63;1.08;;;9.00;99.90;;;;;;4836165;29;20056;-96
2023/10/15 04:59:49;;;;;;;2.67;0.98;;;7.20;99.90;;;;;;4876656;29;20055;-95
2023/10/15 05:02:15;;;;;;;3.28;1.08;;;7.30;99.90;;;;;;4847188;29;20045;-95
2023/10/15 05:04:40;;;;;;;2.47;1.02;;;7.20;99.90;;;;;;4863495;29;20137;-94
2023/10/15 05:07:06;;;;;;;2.70;1.02;;;7.20;99.90;;;;;;4849819;29;20068;-94
2023/10/15 05:09:34;;;;;;;2.35;1.00;;;7.20;99.90;;;;;;4846477;29;20041;-96
2023/10/15 05:12:06;;;;;;;2.45;1.10;;;;;;;;;;4860872;29;20088;-95
2023/10/15 05:14:33;;;;;;;3.53;1.25;;;7.30;99.90;;;;;;4848415;29;20100;-94
2023/10/15 05:17:00;;;;;;;4.07;1.05;;;6.80;99.90;;;;;;4849313;29;20044;-95
2023/10/15 05:19:25;;;;;;;2.83;1.10;;;7.30;99.90;;;;;;4862414;29;20040;-95
2023/10/15 05:21:52;;;;;;;3.42;1.08;;;;;;;;;;4864818;29;20056;-94
2023/10/15 05:24:21;;;;;;;3.53;1.27;;;;;;;;;;4876400;29;20104;-95
2023/10/15 05:26:47;;;;;;;2.70;1.13;;;;;;;;;;4862998;29;20064;-94
2023/10/15 05:29:15;;;;;;;4.05;1.30;;;7.20;99.90;;;;;;4864934;29;20051;-95
2023/10/15 05:31:41;;;;;;;4.97;1.10;;;;;;;;;;4877042;29;20047;-95
2023/10/15 05:34:08;;;;;;;3.00;1.20;;;;;;;;;;4884493;29;20119;-94
2023/10/15 05:36:38;;;;;;;5.28;1.88;;;7.10;99.90;;;;;;4866603;29;20037;-95
2023/10/15 05:39:04;;;;;;;3.30;1.10;;;7.20;99.90;;;;;;4857997;29;20060;-95
2023/10/15 05:41:32;;;;;;;2.30;1.00;;;6.50;99.90;;;;;;4857048;29;20037;-95
2023/10/15 05:43:58;;;;;;;2.47;1.10;;;7.20;99.90;;;;;;4870187;29;20041;-95
2023/10/15 05:46:31;;;;;;;3.08;1.20;;;7.20;99.90;;;;;;4855139;29;20107;-95
2023/10/15 05:48:59;;;;;;;4.07;1.10;;;7.20;99.90;;;;;;4870319;29;20131;-95
2023/10/15 05:51:30;;;;;;;3.17;1.20;;;7.10;99.90;;;;;;4868668;29;20045;-95
2023/10/15 05:53:57;;;;;;;3.35;1.20;;;7.20;99.90;;;;;;4864000;29;20057;-95
2023/10/15 05:56:22;;;;;;;3.03;1.10;;;7.20;99.90;;;;;;4851127;29;20068;-96
2023/10/15 05:58:50;;;;;;;5.22;1.30;;;8.80;99.90;;;;;;4852574;29;20052;-96
2023/10/15 06:01:21;;;;;;;3.10;1.17;;;7.20;99.90;;;;;;4871015;29;20037;-95
2023/10/15 06:03:47;;;;;;;4.03;1.50;;;6.20;99.90;;;;;;4870984;29;20041;-96
2023/10/15 06:06:18;;;;;;;3.90;1.20;;;7.80;99.90;;;;;;4869816;29;20671;-92
2023/10/15 06:08:46;;;;;;;3.95;1.10;;;7.40;99.90;;;;;;4867595;29;20071;-95
2023/10/15 06:11:15;;;;;;;5.15;1.48;;;;;;;;;;4853127;29;20557;-95
2023/10/15 06:13:41;;;;;;;4.38;1.40;;;7.40;99.90;;;;;;4877294;24;20053;-81
2023/10/15 06:16:06;;;;;;;2.15;1.10;;;7.70;99.90;;;;;;4855304;29;20056;-82
2023/10/15 06:18:32;;;;;;;3.72;1.50;;;7.40;99.90;;;;;;4856211;29;20396;-81
2023/10/15 06:20:59;;;;;;;3.97;1.20;;;7.40;99.90;;;;;;4872927;29;20338;-81
2023/10/15 06:23:25;;;;;;;2.80;1.10;;;7.40;99.90;;;;;;4857350;29;20575;-81
2023/10/15 06:25:50;;;;;;;2.67;1.30;;;7.40;99.90;;;;;;4857934;29;20041;-82
2023/10/15 06:28:16;;;;;;;4.28;1.92;;;7.50;99.90;;;;;;4836922;29;20128;-82
2023/10/15 06:30:43;;;;;;;5.45;1.40;;;7.40;99.90;;;;;;4872058;29;20068;-82
2023/10/15 06:33:09;;;;;;;4.22;1.30;;;7.50;99.90;;;;;;4869564;29;20616;-84
2023/10/15 06:35:35;;;;;;;4.28;1.30;;;7.50;99.90;;;;;;4849715;29;20058;-85
2023/10/15 06:38:01;;;;;;;2.47;1.00;;;7.40;99.90;;;;;;4857084;29;20037;-84
2023/10/15 06:40:28;;;;;;;3.28;1.30;;;7.30;99.90;;;;;;4850048;29;20061;-84
2023/10/15 06:43:00;;;;;;;3.45;1.20;;;7.60;99.90;;;;;;4838726;29;20141;-84
2023/10/15 06:45:27;;;;;;;3.57;1.20;;;7.30;99.90;;;;;;4841928;29;20040;-84
2023/10/15 06:47:53;;;;;;;4.43;1.52;;;7.30;99.90;;;;;;4874012;29;20311;-83
2023/10/15 06:50:19;;;;;;;1.80;1.00;;;7.30;99.90;;;;;;4856477;29;20068;-82
2023/10/15 06:52:46;;;;;;;4.82;1.30;;;7.40;99.90;;;;;;4871286;29;20081;-82
2023/10/15 06:55:13;;;;;;;2.42;1.13;;;7.40;99.90;;;;;;4840396;29;20044;-82
2023/10/15 06:57:39;;;;;;;4.38;1.45;;;7.40;99.90;;;;;;4838263;29;20041;-82
2023/10/15 07:00:07;;;;;;;3.63;1.30;;;7.40;99.90;;;;;;4841390;29;20041;-81
2023/10/15 07:02:32;;;;;;;2.15;1.23;;;7.40;99.90;;;;;;4855918;29;20048;-81
2023/10/15 07:05:00;;;;;;;4.68;1.58;;;7.40;99.90;;;;;;4843387;29;20048;-81
2023/10/15 07:07:26;;;;;;;5.85;1.35;;;7.40;99.90;;;;;;4870017;29;20486;-81
2023/10/15 07:09:53;;;;;;;3.75;1.20;;;7.40;99.90;;;;;;4886015;29;20045;-81
2023/10/15 07:12:20;;;;;;;3.70;1.13;;;7.50;99.90;;;;;;4888332;29;20048;-81
2023/10/15 07:14:46;;;;;;;3.35;1.20;;;7.50;99.90;;;;;;4857580;29;20094;-82
2023/10/15 07:17:12;;;;;;;3.33;1.20;;;7.60;99.90;;;;;;4856320;29;20048;-81
2023/10/15 07:19:38;;;;;;;2.22;0.90;;;7.60;99.90;;;;;;4853014;29;20093;-81
2023/10/15 07:22:04;;;;;;;5.32;1.40;;;7.70;99.90;;;;;;4870960;29;20089;-81
2023/10/15 07:24:31;;;;;;;3.92;1.20;;;7.50;99.90;;;;;;4857501;29;20040;-82
2023/10/15 07:26:57;;;;;;;3.72;1.20;;;7.50;99.90;;;;;;4874856;29;20087;-82
2023/10/15 07:29:24;;;;;;;3.15;1.23;;;7.50;99.90;;;;;;4867497;29;20181;-81
2023/10/15 07:31:51;;;;;;;2.60;1.08;;;7.50;99.90;;;;;;4874802;29;20455;-81
2023/10/15 07:34:17;;;;;;;3.67;1.38;;;7.50;99.90;;;;;;4873683;29;20092;-82
2023/10/15 07:36:46;;;;;;;2.75;1.10;;;7.70;99.90;;;;;;4855042;29;20040;-81
2023/10/15 07:39:11;;;;;;;3.00;1.05;;;7.50;99.90;;;;;;4857807;29;20044;-80
2023/10/15 07:41:37;;;;;;;2.13;0.90;;;7.50;99.90;;;;;;4884781;29;20492;-81
2023/10/15 07:44:03;;;;;;;1.95;1.00;;;7.60;99.90;;;;;;4853873;29;21630;-81
2023/10/15 07:46:30;;;;;;;3.53;1.50;;;7.60;99.90;;;;;;4872729;29;20036;-81
2023/10/15 07:49:00;;;;;;;3.92;1.20;;;7.60;99.90;;;;;;4851525;29;20041;-82
2023/10/15 07:51:27;;;;;;;4.93;1.20;;;7.60;99.90;;;;;;4873917;29;20037;-81
2023/10/15 07:53:53;;;;;;;1.13;0.88;;;7.70;99.90;;;;;;4858781;29;20036;-81
2023/10/15 07:56:21;;;;;;;4.85;1.40;;;7.60;99.90;;;;;;4854702;29;20108;-80
2023/10/15 07:58:47;;;;;;;3.25;1.20;;;7.70;99.90;;;;;;4872622;29;20104;-80
2023/10/15 08:01:13;;;;;;;2.15;1.10;;;7.70;99.90;;;;;;4857952;29;20064;-80
2023/10/15 08:03:38;;;;;;;6.15;1.33;;;7.60;99.90;;;;;;4888687;29;20076;-82
2023/10/15 08:06:04;;;;;;;3.58;1.30;;;7.70;99.90;;;;;;4870437;29;20047;-81
2023/10/15 08:08:30;;;;;;;4.10;1.27;;;7.70;99.90;;;;;;4848724;29;20067;-80
2023/10/15 08:10:56;;;;;;;2.83;1.17;;;7.70;99.90;;;;;;4885049;29;20051;-80
2023/10/15 08:13:22;;;;;;;2.83;1.27;;;7.80;99.90;;;;;;4872390;29;20043;-81
2023/10/15 08:15:48;;;;;;;4.20;1.40;;;7.90;99.90;;;;;;4888303;29;20119;-80
2023/10/15 08:18:14;;;;;;;4.15;1.27;;;8.10;99.90;;;;;;4855281;29;20479;-80
2023/10/15 08:20:39;;;;;;;2.55;1.25;;;8.20;99.90;;;;;;4871765;29;20052;-80
2023/10/15 08:23:05;;;;;;;2.65;1.10;;;8.40;99.90;;;;;;4870622;29;20510;-80
2023/10/15 08:25:31;;;;;;;2.08;1.10;;;8.40;99.90;;;;;;4873704;29;20123;-80
2023/10/15 08:27:57;;;;;;;4.53;1.23;;;8.40;99.90;;;;;;4871577;29;20049;-80
2023/10/15 08:30:23;;;;;;;3.15;1.00;;;8.50;99.90;;;;;;4889967;29;20040;-81
2023/10/15 08:32:49;;;;;;;6.35;1.60;;;8.60;99.90;;;;;;4841103;29;20045;-80
2023/10/15 08:35:16;;;;;;;6.45;1.67;;;8.70;99.90;;;;;;4867766;29;20506;-80
2023/10/15 08:37:43;;;;;;;4.78;1.42;;;8.90;99.90;;;;;;4874145;29;20043;-80
2023/10/15 08:40:15;;;;;;;4.85;1.38;;;9.10;99.90;;;;;;4853682;29;20056;-80
2023/10/15 08:43:01;;;;;;;5.63;1.50;;;8.80;99.90;;;;;;4869531;29;20131;-82
2023/10/15 08:45:27;;;;;;;3.72;1.38;;;8.70;99.90;;;;;;4888541;29;20044;-84
2023/10/15 08:47:53;;;;;;;2.70;1.25;;;8.30;99.90;;;;;;4888265;29;20051;-85
2023/10/15 08:50:21;;;;;;;3.58;1.20;;;8.10;99.90;;;;;;4856481;29;20254;-83
2023/10/15 08:52:48;;;;;;;4.60;1.67;;;7.80;99.90;;;;;;4855860;29;20036;-84
2023/10/15 08:55:14;;;;;;;4.55;1.38;;;7.60;99.90;;;;;;4886124;29;20036;-83
2023/10/15 08:57:41;;;;;;;5.28;1.30;;;7.50;99.90;;;;;;4826591;29;20048;-83
2023/10/15 09:00:25;;;;;;;2.05;1.15;;;7.50;99.90;;;;;;4871684;29;20105;-84
2023/10/15 09:02:56;;;;;;;5.00;1.35;;;7.40;99.90;;;;;;4858111;29;20673;-83
2023/10/15 09:05:25;;;;;;;4.32;1.13;;;7.30;99.90;;;;;;4856059;29;20080;-83
2023/10/15 09:07:54;;;;;;;2.80;1.00;;;7.30;99.90;;;;;;4875315;29;20052;-83
2023/10/15 09:10:20;;;;;;;3.40;1.40;;;7.30;99.90;;;;;;4860841;29;20037;-82
2023/10/15 09:12:47;;;;;;;2.45;1.13;;;7.60;99.90;;;;;;4874422;29;20494;-81
2023/10/15 09:15:16;;;;;;;3.70;1.35;;;7.40;99.90;;;;;;4881881;29;20068;-81
2023/10/15 09:17:58;;;;;;;4.07;1.20;;;7.70;99.90;;;;;;4877300;29;20170;-81
2023/10/15 09:20:32;;;;;;;3.97;1.40;;;7.60;99.90;;;;;;4874815;29;20494;-81
2023/10/15 09:22:59;;;;;;;2.03;1.00;;;7.70;99.90;;;;;;4877980;29;20372;-81
2023/10/15 09:25:31;;;;;;;3.33;1.20;;;7.80;99.90;;;;;;4860992;29;20185;-81
2023/10/15 09:27:58;;;;;;;3.97;1.30;;;7.90;99.90;;;;;;4874951;29;20071;-81
2023/10/15 09:30:26;;;;;;;3.08;1.15;;;8.10;99.90;;;;;;4858359;29;20055;-81
2023/10/15 09:32:52;;;;;;;5.68;1.60;;;8.30;99.90;;;;;;4853857;29;20063;-81
2023/10/15 09:35:20;;;;;;;4.38;1.45;;;8.30;99.90;;;;;;4845806;29;20517;-81
2023/10/15 09:37:46;;;;;;;3.53;1.20;;;8.50;99.90;;;;;;4892302;29;20079;-81
2023/10/15 09:40:19;;;;;;;4.28;1.20;;;8.60;99.90;;;;;;4859119;29;20041;-81
2023/10/15 09:42:52;;;;;;;6.25;1.65;;;8.80;99.90;;;;;;4858124;29;21243;-80
2023/10/15 09:45:19;;;;;;;1.55;1.17;;;9.00;99.90;;;;;;4874146;29;20044;-80
2023/10/15 09:47:52;;;;;;;3.67;1.17;;;9.10;99.90;;;;;;4874501;29;20667;-81
2023/10/15 09:50:25;;;;;;;;;;;9.20;99.90;;;;;;4862019;29;20037;-81
2023/10/15 09:53:01;;;;;;;5.07;1.50;;;9.40;99.90;;;;;;4873747;29;20420;-82
2023/10/15 09:55:29;;;;;;;4.28;1.38;;;9.50;99.90;;;;;;4872274;29;20644;-82
2023/10/15 09:57:56;;;;;;;6.25;1.52;;;9.60;99.90;;;;;;4887429;29;20052;-82
2023/10/15 10:03:37;;;;;;;4.47;1.25;;;9.90;99.90;;;;;;4874234;29;20056;-81
2023/10/15 10:06:22;;;;;;;4.20;1.33;;;10.00;99.90;;;;;;4875491;29;20403;-81
2023/10/15 10:09:16;;;;;;;6.50;1.70;;;10.20;99.90;;;;;;4886580;29;20049;-81
2023/10/15 10:12:07;;;;;;;4.40;1.38;;;10.40;99.90;;;;;;4875094;29;20048;-81
2023/10/15 10:15:10;;;;;;;5.28;1.63;;;10.50;99.90;;;;;;4897396;29;20052;-81
2023/10/15 10:17:37;;;;;;;;;;;10.70;99.90;;;;;;4876734;29;20076;-80
2023/10/15 10:20:13;;;;;;;6.15;1.63;;;10.80;99.90;;;;;;4876174;29;20400;-80
2023/10/15 10:22:41;;;;;;;5.53;1.27;;;10.70;99.90;;;;;;4873524;29;20095;-80
2023/10/15 10:25:07;;;;;;;5.47;1.45;;;10.90;99.90;;;;;;4875652;29;20044;-82
2023/10/15 10:27:45;;;;;;;4.43;1.40;;;10.60;99.90;;;;;;4875072;29;20044;-83
2023/10/15 10:30:27;;;;;;;4.97;1.40;;;9.90;99.90;;;;;;4858702;29;20128;-84
2023/10/15 10:33:02;;;;;;;2.47;1.02;;;9.30;99.90;;;;;;4891157;29;20403;-85
2023/10/15 10:35:27;;;;;;;4.00;1.00;;;8.60;99.90;;;;;;4873776;29;20055;-84
2023/10/15 10:38:10;;;;;;;3.92;1.15;;;8.60;99.90;;;;;;4874435;29;20446;-83
2023/10/15 10:41:04;;;;;;;2.47;1.10;;;8.40;99.90;;;;;;4872700;29;20135;-82
2023/10/15 10:43:30;;;;;;;4.03;1.02;;;8.40;99.90;;;;;;4874952;29;20660;-82
2023/10/15 10:45:59;;;;;;;1.80;1.00;;;8.40;99.90;;;;;;4859852;29;20056;-82
2023/10/15 10:48:30;;;;;;;3.33;1.08;;;8.40;99.90;;;;;;4873993;29;20072;-81
2023/10/15 10:51:11;;;;;;;5.13;1.48;;;8.50;99.90;;;;;;4875430;29;20054;-82
2023/10/15 10:53:57;;;;;;;3.53;1.42;;;8.60;99.90;;;;;;4874342;29;20491;-82
2023/10/15 10:56:25;;;;;;;4.82;1.70;;;8.60;99.90;;;;;;4874928;29;20047;-81
2023/10/15 10:58:57;;;;;;;3.65;1.30;;;8.70;99.90;;;;;;4876158;29;20044;-81
2023/10/15 11:01:23;;;;;;;2.92;1.20;;;8.80;99.90;;;;;;4889142;29;20208;-81
2023/10/15 11:03:52;;;;;;;3.58;1.30;;;7.60;99.90;;;;;;4859079;29;20414;-81
2023/10/15 11:06:18;;;;;;;4.53;1.60;;;8.90;99.90;;;;;;4859597;29;20049;-81
2023/10/15 11:08:47;;;;;;;3.10;1.20;;;9.10;99.90;;;;;;4860799;29;20052;-81
2023/10/15 11:11:13;;;;;;;4.47;1.75;;;9.40;99.90;;;;;;4867860;29;20067;-81
2023/10/15 11:13:39;;;;;;;4.38;1.40;;;9.50;99.90;;;;;;4886598;29;20324;-81
2023/10/15 11:16:05;;;;;;;5.22;1.60;;;9.70;99.90;;;;;;4889329;29;20269;-81
2023/10/15 11:18:34;;;;;;;6.82;1.60;;;9.90;99.90;;;;;;4859340;29;20051;-81
2023/10/15 11:21:00;;;;;;;4.03;1.38;;;10.00;99.90;;;;;;4860058;29;20037;-81
2023/10/15 11:23:26;;;;;;;4.13;1.45;;;10.00;99.90;;;;;;4875105;29;20051;-81
2023/10/15 11:25:54;;;;;;;4.20;1.27;;;10.20;99.90;;;;;;4873080;29;20044;-81
2023/10/15 11:28:21;;;;;;;5.03;1.30;;;10.30;99.90;;;;;;4872863;29;20124;-81
2023/10/15 11:30:46;;;;;;;2.90;1.10;;;10.50;99.90;;;;;;4859680;29;20503;-80
2023/10/15 11:33:17;;;;;;;3.97;1.27;;;10.60;99.90;;;;;;4860238;29;20036;-80
2023/10/15 11:35:48;;;;;;;5.30;1.30;;;10.80;99.90;;;;;;4849316;29;20033;-81
2023/10/15 11:38:14;;;;;;;6.43;1.73;;;11.00;99.90;;;;;;4874872;29;20490;-81
2023/10/15 11:40:41;;;;;;;4.80;1.60;;;11.10;99.90;;;;;;4873824;29;20045;-81
2023/10/15 11:43:19;;;;;;;4.93;1.73;;;11.00;99.90;;;;;;4861287;29;20052;-80
2023/10/15 11:45:46;;;;;;;2.45;1.10;;;11.00;99.90;;;;;;4852588;29;20056;-80
2023/10/15 11:48:13;;;;;;;5.78;1.30;;;10.90;99.90;;;;;;4885628;29;20058;-81
2023/10/15 11:50:44;;;;;;;5.45;1.42;;;11.00;99.90;;;;;;4859046;29;20543;-80
2023/10/15 11:53:17;;;;;;;5.03;1.27;;;11.10;99.90;;;;;;4889973;29;20051;-80
2023/10/15 11:55:52;;;;;;;2.30;1.02;;;11.20;99.90;;;;;;4889241;29;20043;-81
2023/10/15 11:58:27;;;;;;;6.60;1.40;;;11.20;99.90;;;;;;4872670;29;20068;-81
2023/10/15 12:00:56;;;;;;;7.07;1.52;;;11.10;99.90;;;;;;4873602;29;20065;-82
2023/10/15 12:03:22;;;;;;;3.00;1.20;;;11.10;99.90;;;;;;4866002;29;20055;-83
2023/10/15 12:05:49;;;;;;;5.68;1.50;;;11.10;99.90;;;;;;4840959;29;20057;-80
2023/10/15 12:08:16;;;;;;;6.75;1.60;;;11.10;99.90;;;;;;4872329;29;20112;-80
2023/10/15 12:10:43;;;;;;;4.70;1.42;;;11.20;99.90;;;;;;4889872;29;20465;-82
2023/10/15 12:13:09;;;;;;;4.65;1.48;;;11.30;99.90;;;;;;4856913;29;20036;-80
2023/10/15 12:15:35;;;;;;;5.90;1.60;;;11.40;99.90;;;;;;4887707;29;20151;-80
2023/10/15 12:18:04;;;;;;;6.50;1.90;;;11.50;99.90;;;;;;4871740;29;20505;-80
2023/10/15 12:20:30;;;;;;;8.73;1.70;;;11.40;99.90;;;;;;4829727;29;20570;-80
2023/10/15 12:22:56;;;;;;;5.85;1.55;;;11.20;99.90;;;;;;4850361;29;20135;-82
2023/10/15 12:25:22;;;;;;;7.35;1.63;;;11.00;99.90;;;;;;4891176;29;20072;-81
2023/10/15 12:27:48;;;;;;;4.40;1.30;;;10.80;99.90;;;;;;4858905;29;20092;-81
2023/10/15 12:30:47;;;;;;;5.93;1.75;;;10.70;99.90;;;;;;4889033;29;20040;-80
2023/10/15 12:33:07;;;;;;;6.55;1.45;;;10.70;99.90;;;;;;4883956;29;20055;-81
2023/10/15 12:35:33;;;;;;;5.78;1.45;;;10.90;99.90;;;;;;4854722;29;20040;-80
2023/10/15 12:38:02;;;;;;;4.93;1.40;;;11.10;99.90;;;;;;4868088;29;20420;-81
2023/10/15 12:40:33;;;;;;;4.15;1.17;;;11.20;99.90;;;;;;4870717;29;20045;-79
2023/10/15 12:43:00;;;;;;;5.05;1.63;;;11.30;99.90;;;;;;4877251;29;20136;-80
2023/10/15 12:45:26;;;;;;;7.50;1.45;;;11.40;99.90;;;;;;4891289;29;20082;-81
2023/10/15 12:47:52;;;;;;;3.75;1.38;;;11.50;99.90;;;;;;4877506;29;20100;-81
2023/10/15 12:50:18;;;;;;;6.30;1.60;;;11.40;99.90;;;;;;4877271;29;20047;-81
2023/10/15 12:52:47;;;;;;;5.82;1.52;;;11.10;99.90;;;;;;4878747;29;20483;-83
2023/10/15 12:55:18;;;;;;;5.45;1.65;;;10.70;99.90;;;;;;4890782;29;20041;-81
2023/10/15 12:57:47;;;;;;;6.05;1.50;;;10.30;99.90;;;;;;4877009;29;20097;-81
2023/10/15 13:00:21;;;;;;;3.53;1.25;;;10.10;99.90;;;;;;4874206;29;20755;-81
2023/10/15 13:02:51;;;;;;;7.40;1.55;;;10.00;99.90;;;;;;4862333;29;20048;-79
2023/10/15 13:05:22;;;;;;;5.65;1.30;;;10.10;99.90;;;;;;4875624;29;20467;-80
2023/10/15 13:07:49;;;;;;;5.38;1.30;;;10.20;99.90;;;;;;4876588;29;20045;-80
2023/10/15 13:10:17;;;;;;;3.72;1.30;;;10.30;99.90;;;;;;4861879;29;20049;-80
2023/10/15 13:12:47;;;;;;;6.47;1.60;;;10.50;99.90;;;;;;4876961;29;20076;-81
2023/10/15 13:15:17;;;;;;;3.88;1.20;;;10.50;99.90;;;;;;4877196;29;20579;-80
2023/10/15 13:17:44;;;;;;;3.35;1.30;;;10.60;99.90;;;;;;4875599;29;20123;-80
2023/10/15 13:20:13;;;;;;;5.13;1.35;;;10.50;99.90;;;;;;4874605;29;20044;-81
2023/10/15 13:22:42;;;;;;;4.50;1.52;;;10.40;99.90;;;;;;4863806;29;20052;-80
2023/10/15 13:25:11;;;;;;;9.50;1.77;;;10.40;99.90;;;;;;4878989;29;20096;-79
2023/10/15 13:27:38;;;;;;;5.50;1.35;;;10.40;99.90;;;;;;4860165;29;20062;-80
2023/10/15 13:30:04;;;;;;;4.97;1.35;;;10.60;99.90;;;;;;4880452;29;20044;-80